Meath Environmental Platform

Observations for Trim Patrick St

Time AQI Temp °C Hum % Pres Pa CO μg/m³ H₂S μg/m³ NO μg/m³ NO₂ μg/m³ O₃ μg/m³ SO₂ μg/m³ PM1 μg/m³ PM2.5 μg/m³ PM10 μg/m³
Friday 31 July 2026
14:55 2 23.1 44 68,833 0.04 5.24 1.75 15.22 64.03 4.91 2 7.57 8.32
14:54 2 22.9 44 68,827 0 3.71 1.55 17.86 65.57 3.94 2 8.36 9.19
14:51 2 22.7 44 68,811 0 2.45 1.43 17.04 64.92 3.7 2.86 7.57 8.32
14:50 2 22.6 44 68,804 0 2.48 1.49 17.41 67.48 3.7 2 7.57 8.33
14:47 2 22.4 45 68,819 0 3.97 1.41 15.36 68.69 3.49 2.86 7.53 8.28
14:46 2 22.3 45 68,813 0 8.58 1.39 15.7 72.22 4.65 2.86 8.25 9.07
14:45 2 22.2 46 68,835 0 10.8 1.38 23.84 67.36 4.34 2 7.46 8.2
14:44 2 22.1 46 68,835 0 12.55 1.38 21.37 70.44 4.29 2 7.44 8.19
14:43 2 22 47 68,837 0.02 13.9 1.35 32.79 64.86 4.59 2 7.4 8.14
14:42 2 21.9 46 68,811 0 12.07 1.37 32.04 64.91 4.23 2 7.42 8.17
14:41 2 21.9 46 68,809 0 12.29 1.37 22.72 68.77 4.61 2 7.43 8.17
14:40 2 21.8 46 68,809 0 13.61 1.37 29.44 68.46 4.57 2 7.42 8.17
14:39 2 21.7 46 68,778 0 12.9 1.36 29.12 69.55 4.19 2 7.42 8.16
14:38 2 21.7 46 68,766 0 10.39 1.38 20.85 71.05 4.09 2 7.47 8.22
14:37 2 21.7 46 68,778 0 13.24 1.37 30 65.44 4.28 2.86 8.2 9.02
14:36 2 21.6 46 68,768 0 12.48 1.37 31.45 64.9 4.08 2.86 8.21 9.03
14:35 2 21.6 46 68,751 0 10.81 1.37 22.18 69.65 3.79 2.86 8.22 9.04
14:34 2 21.6 46 68,735 0 14.33 1.37 27 67.25 4.58 2 6.67 7.34
14:33 2 21.5 46 68,735 0 14.35 1.37 30.67 67.79 4.1 2.86 8.22 9.04
14:32 2 21.5 46 68,774 0 14.72 1.37 39.01 61.86 4.03 2 6.68 7.35